Time;durP1;ratioP1;P1;durP2;ratioP2;P2;SDS_P1;SDS_P2;PMS_P1;PMS_P2;Temp;Humidity;BMP_temperature;BMP_pressure;BME280_temperature;BME280_humidity;BME280_pressure;Samples;Min_cycle;Max_cycle;Signal;HPM_P1;HPM_P2
2022/10/18 00:01:55;;;;;;;5.90;3.53;;;;;;;8.03;52.32;96318.75;5082110;28;20505;-72
2022/10/18 00:04:21;;;;;;;4.60;3.10;;;;;;;8.06;51.92;96326.34;5085478;28;20461;-72
2022/10/18 00:06:46;;;;;;;5.03;3.33;;;;;;;7.94;52.35;96305.41;5070037;28;20032;-72
2022/10/18 00:09:12;;;;;;;6.47;3.53;;;;;;;7.95;52.68;96309.69;5083774;28;20032;-72
2022/10/18 00:11:37;;;;;;;7.10;3.35;;;;;;;7.98;52.67;96314.69;5066419;28;20024;-72
2022/10/18 00:14:03;;;;;;;6.70;3.67;;;;;;;7.89;53.06;96308.22;5084887;28;20116;-72
2022/10/18 00:16:28;;;;;;;6.47;4.25;;;;;;;7.88;53.11;96308.28;5085464;28;20122;-72
2022/10/18 00:18:54;;;;;;;7.53;3.15;;;;;;;7.88;53.39;96306.53;5087212;28;20040;-72
2022/10/18 00:21:21;;;;;;;9.50;3.55;;;;;;;7.77;53.46;96296.72;5082806;28;20020;-72
2022/10/18 00:23:47;;;;;;;6.03;3.20;;;;;;;7.82;53.42;96301.66;5066677;28;20493;-72
2022/10/18 00:26:14;;;;;;;4.03;3.08;;;;;;;7.78;53.83;96289.81;5068735;28;20027;-72
2022/10/18 00:28:39;;;;;;;7.13;3.83;;;;;;;7.41;54.57;96276.03;5087218;28;20111;-72
2022/10/18 00:31:12;;;;;;;5.68;3.72;;;;;;;7.55;54.74;96283.13;5072411;28;20158;-72
2022/10/18 00:33:37;;;;;;;5.82;4.00;;;;;;;7.65;54.23;96270.59;5086949;28;20028;-72
2022/10/18 00:36:03;;;;;;;6.97;3.90;;;;;;;7.55;54.53;96270.19;5086664;28;20051;-70
2022/10/18 00:38:28;;;;;;;6.35;4.13;;;;;;;7.64;54.45;96274.13;5105505;28;20050;-70
2022/10/18 00:40:54;;;;;;;5.88;3.67;;;;;;;7.56;55.01;96275.31;5088227;28;20477;-71
2022/10/18 00:43:19;;;;;;;6.32;3.92;;;;;;;7.53;55.23;96275.44;5086950;28;20481;-71
2022/10/18 00:45:45;;;;;;;5.75;3.42;;;;;;;7.59;55.30;96267.41;5083179;28;20421;-71
2022/10/18 00:48:11;;;;;;;5.60;3.83;;;;;;;7.53;55.16;96279.78;5085677;28;20036;-71
2022/10/18 00:50:36;;;;;;;5.45;3.70;;;;;;;7.41;55.11;96272.59;5086769;28;20047;-71
2022/10/18 00:53:04;;;;;;;5.40;3.97;;;;;;;7.30;55.56;96283.44;5053484;28;20048;-70
2022/10/18 00:55:30;;;;;;;7.53;3.72;;;;;;;7.31;55.53;96278.22;5066974;28;20044;-71
2022/10/18 00:57:56;;;;;;;6.03;3.90;;;;;;;7.30;55.72;96280.84;5087767;28;20040;-71
2022/10/18 01:00:21;;;;;;;5.65;3.67;;;;;;;7.03;55.92;96252.81;5069836;28;20748;-70
2022/10/18 01:02:46;;;;;;;9.07;4.40;;;;;;;7.03;56.72;96273.47;5081890;28;20040;-71
2022/10/18 01:05:13;;;;;;;4.72;3.70;;;;;;;6.91;56.59;96274.03;5086513;28;20016;-71
2022/10/18 01:07:48;;;;;;;7.65;3.70;;;;;;;6.89;56.46;96273.28;5072128;28;20101;-71
2022/10/18 01:10:28;;;;;;;6.68;4.10;;;;;;;6.77;56.64;96274.66;5087489;28;20028;-70
2022/10/18 01:12:59;;;;;;;6.05;4.13;;;;;;;6.74;56.51;96271.34;5088886;28;20482;-71
2022/10/18 01:15:47;;;;;;;6.10;4.30;;;;;;;6.62;57.01;96270.16;5088759;28;20618;-73
2022/10/18 01:18:34;;;;;;;7.75;4.43;;;;;;;6.40;57.92;96267.69;5086732;28;20108;-70
2022/10/18 01:21:17;;;;;;;8.50;4.63;;;;;;;6.18;59.81;96257.44;5087103;28;20043;-70
2022/10/18 01:23:48;;;;;;;7.68;4.40;;;;;;;6.24;60.18;96263.19;5104930;28;20035;-74
2022/10/18 01:26:44;;;;;;;7.30;4.50;;;;;;;6.41;59.64;96265.03;5082089;28;20060;-71
2022/10/18 01:29:28;;;;;;;6.63;4.20;;;;;;;6.52;59.45;96259.41;5117507;27;20127;-70
2022/10/18 01:31:58;;;;;;;5.72;4.00;;;;;;;6.62;59.51;96258.09;5081253;28;20043;-71
2022/10/18 01:34:25;;;;;;;6.07;4.30;;;;;;;6.65;59.52;96252.78;5068801;28;20529;-70
2022/10/18 01:36:51;;;;;;;5.75;4.28;;;;;;;6.78;59.50;96257.41;5101981;28;20404;-71
2022/10/18 01:39:22;;;;;;;8.35;4.55;;;;;;;6.77;59.35;96250.56;5071818;28;20426;-70
2022/10/18 01:41:48;;;;;;;6.85;4.68;;;;;;;6.79;59.60;96266.84;5057486;28;20032;-71
2022/10/18 01:44:24;;;;;;;6.90;5.13;;;;;;;6.80;59.60;96260.75;5120152;27;20572;-70
2022/10/18 01:46:51;;;;;;;5.68;4.55;;;;;;;6.79;59.17;96259.09;5071890;28;20033;-71
2022/10/18 01:49:16;;;;;;;7.68;4.53;;;;;;;6.71;58.35;96252.53;5065659;28;20417;-71
2022/10/18 01:51:42;;;;;;;7.10;4.70;;;;;;;6.72;58.71;96250.78;5087605;28;20047;-72
2022/10/18 01:54:08;;;;;;;6.82;4.57;;;;;;;6.87;58.71;96249.25;5086531;28;20113;-72
2022/10/18 01:56:40;;;;;;;7.30;4.60;;;;;;;6.75;58.45;96262.72;5069134;28;20051;-73
2022/10/18 01:59:39;;;;;;;6.13;4.18;;;;;;;6.56;58.86;96257.53;5093472;28;20032;-73
2022/10/18 02:02:23;;;;;;;6.30;4.43;;;;;;;6.37;59.42;96253.16;5087849;28;20409;-72
2022/10/18 02:05:13;;;;;;;7.10;4.82;;;;;;;6.20;59.82;96247.91;5083086;28;20071;-72
2022/10/18 02:07:54;;;;;;;8.18;5.10;;;;;;;6.03;59.98;96240.88;5070098;28;20040;-72
2022/10/18 02:10:30;;;;;;;6.13;4.38;;;;;;;5.93;60.60;96247.28;5088389;28;20482;-72
2022/10/18 02:12:55;;;;;;;7.57;4.47;;;;;;;5.76;60.88;96242.81;5088305;28;20047;-72
2022/10/18 02:15:25;;;;;;;8.35;4.80;;;;;;;5.80;60.59;96237.47;5064847;28;20109;-72
2022/10/18 02:17:50;;;;;;;7.10;5.15;;;;;;;5.55;61.19;96231.66;5116005;27;20044;-72
2022/10/18 02:20:18;;;;;;;8.95;4.63;;;;;;;5.36;61.51;96218.66;5046448;28;20082;-72
2022/10/18 02:22:44;;;;;;;8.15;4.78;;;;;;;5.38;61.18;96224.59;5086791;28;20036;-73
2022/10/18 02:25:13;;;;;;;8.05;5.22;;;;;;;5.31;60.98;96234.31;5066063;28;20065;-72
2022/10/18 02:27:38;;;;;;;9.02;4.88;;;;;;;5.26;61.57;96236.22;5098521;28;20043;-72
2022/10/18 02:30:04;;;;;;;8.90;5.07;;;;;;;5.11;62.21;96236.81;5052819;28;20028;-72
2022/10/18 02:32:37;;;;;;;7.10;4.95;;;;;;;5.11;62.27;96236.81;5120378;27;20119;-72
2022/10/18 02:35:13;;;;;;;7.97;5.28;;;;;;;5.04;62.51;96227.66;5083615;28;20020;-72
2022/10/18 02:37:38;;;;;;;10.68;5.18;;;;;;;5.07;62.71;96242.97;5069873;28;20028;-72
2022/10/18 02:40:05;;;;;;;7.60;5.50;;;;;;;4.84;63.24;96234.38;5119869;27;20464;-72
2022/10/18 02:42:37;;;;;;;8.15;5.40;;;;;;;4.83;63.82;96242.19;5068389;28;20048;-72
2022/10/18 02:45:03;;;;;;;8.93;5.40;;;;;;;4.73;64.22;96246.81;5065140;28;20039;-73
2022/10/18 02:47:29;;;;;;;8.68;5.50;;;;;;;4.78;64.44;96234.63;5079957;28;20047;-72
2022/10/18 02:49:54;;;;;;;8.50;5.30;;;;;;;4.85;64.45;96242.97;5085191;28;20040;-72
2022/10/18 02:52:20;;;;;;;9.27;5.22;;;;;;;4.76;64.69;96227.84;5083764;28;20056;-72
2022/10/18 02:54:45;;;;;;;8.68;5.00;;;;;;;4.85;65.69;96240.41;5083260;28;20049;-73
2022/10/18 02:57:10;;;;;;;9.55;5.38;;;;;;;4.82;65.18;96256.81;5086459;28;20524;-72
2022/10/18 02:59:36;;;;;;;9.23;5.38;;;;;;;4.78;65.44;96250.06;5070022;28;20490;-72
2022/10/18 03:02:01;;;;;;;9.55;5.60;;;;;;;4.88;65.64;96253.16;5085334;28;20046;-72
2022/10/18 03:04:27;;;;;;;9.40;5.47;;;;;;;4.90;64.81;96241.91;5083159;28;20097;-72
2022/10/18 03:06:52;;;;;;;7.07;5.07;;;;;;;4.98;65.67;96254.47;5115954;27;20037;-70
2022/10/18 03:09:18;;;;;;;6.78;4.70;;;;;;;4.81;64.96;96216.50;5084686;28;20042;-72
2022/10/18 03:11:43;;;;;;;8.77;4.53;;;;;;;5.10;65.27;96253.19;5085113;28;20570;-72
2022/10/18 03:14:08;;;;;;;8.30;5.70;;;;;;;5.23;65.03;96249.22;5084457;28;20558;-71
2022/10/18 03:16:34;;;;;;;8.20;5.82;;;;;;;5.26;65.27;96246.53;5068241;28;20439;-72
2022/10/18 03:18:59;;;;;;;7.25;5.10;;;;;;;5.47;64.93;96249.16;5084108;28;20145;-70
2022/10/18 03:21:25;;;;;;;10.18;5.78;;;;;;;5.36;65.71;96237.53;5081837;28;20043;-72
2022/10/18 03:23:50;;;;;;;9.23;6.15;;;;;;;5.37;65.51;96249.50;5118100;27;20032;-72
2022/10/18 03:26:16;;;;;;;10.23;6.45;;;;;;;5.29;66.33;96228.38;5083694;28;20040;-70
2022/10/18 03:28:41;;;;;;;8.25;5.53;;;;;;;5.49;65.44;96229.31;5090246;28;20047;-70
2022/10/18 03:31:06;;;;;;;9.15;5.57;;;;;;;5.66;63.92;96234.63;5086060;28;20028;-70
2022/10/18 03:33:32;;;;;;;8.75;6.00;;;;;;;5.69;63.99;96237.09;5119054;27;20043;-71
2022/10/18 03:35:57;;;;;;;11.95;5.85;;;;;;;5.64;63.56;96236.44;5085219;28;20508;-71
2022/10/18 03:38:23;;;;;;;8.02;6.25;;;;;;;5.62;63.28;96243.38;5085401;28;20036;-70
2022/10/18 03:40:48;;;;;;;8.35;6.38;;;;;;;5.68;62.61;96243.13;5085947;28;20051;-71
2022/10/18 03:43:14;;;;;;;11.35;6.10;;;;;;;5.60;62.70;96229.75;5082238;28;20055;-72
2022/10/18 03:45:39;;;;;;;11.63;6.95;;;;;;;5.47;63.01;96246.59;5084664;28;20035;-72
2022/10/18 03:48:05;;;;;;;8.95;6.00;;;;;;;5.32;63.59;96233.41;5067315;28;20028;-70
2022/10/18 03:50:30;;;;;;;11.10;6.63;;;;;;;5.16;64.10;96247.78;5085619;28;20031;-71
2022/10/18 03:52:56;;;;;;;14.32;8.18;;;;;;;5.03;64.49;96256.88;5087595;28;20059;-71
2022/10/18 03:55:21;;;;;;;8.43;6.10;;;;;;;5.14;65.24;96247.00;5113380;28;20070;-72
2022/10/18 04:09:31;;;;;;;9.30;6.20;;;;;;;5.80;61.13;96246.97;5119841;27;20120;-68
2022/10/18 04:11:57;;;;;;;11.82;7.43;;;;;;;5.68;61.09;96258.59;5105064;28;20409;-68
2022/10/18 04:14:22;;;;;;;8.68;5.80;;;;;;;5.55;62.58;96257.44;5105740;28;20036;-68
2022/10/18 04:16:48;;;;;;;9.20;6.32;;;;;;;5.45;63.59;96256.13;5103304;28;20408;-68
2022/10/18 04:19:13;;;;;;;9.40;6.30;;;;;;;5.49;63.58;96252.50;5103816;28;20093;-68
2022/10/18 04:21:39;;;;;;;8.48;6.30;;;;;;;5.35;64.18;96240.19;5103770;28;20032;-68
2022/10/18 04:24:04;;;;;;;8.13;5.85;;;;;;;5.36;64.99;96250.41;5104300;28;20118;-68
2022/10/18 04:26:30;;;;;;;9.02;6.40;;;;;;;5.29;65.24;96248.13;5102451;28;20107;-69
2022/10/18 04:28:55;;;;;;;13.27;8.38;;;;;;;5.19;65.07;96244.25;5085197;28;20573;-68
2022/10/18 04:31:21;;;;;;;12.95;9.18;;;;;;;5.26;64.94;96253.41;5103472;28;20023;-67
2022/10/18 04:33:46;;;;;;;49.08;24.45;;;;;;;5.32;64.59;96248.88;5101986;28;20024;-68
2022/10/18 04:36:12;;;;;;;49.22;25.45;;;;;;;5.25;65.43;96255.16;5098929;28;20036;-68
2022/10/18 04:38:37;;;;;;;30.98;15.70;;;;;;;5.10;66.06;96251.44;5102098;28;20039;-68
2022/10/18 04:41:02;;;;;;;34.95;18.90;;;;;;;5.10;65.82;96243.72;5101741;28;20043;-67
2022/10/18 04:43:28;;;;;;;20.67;12.52;;;;;;;5.24;66.00;96248.34;5104279;28;20039;-68
2022/10/18 04:45:53;;;;;;;54.17;25.50;;;;;;;5.07;66.30;96241.25;5101456;28;20023;-68
2022/10/18 04:48:19;;;;;;;26.05;15.45;;;;;;;5.16;66.15;96234.91;5102607;28;20085;-68
2022/10/18 04:50:47;;;;;;;13.13;7.70;;;;;;;5.06;66.42;96231.00;5081316;28;20036;-67
2022/10/18 04:53:12;;;;;;;8.77;6.18;;;;;;;5.25;66.00;96234.53;5099758;28;20032;-69
2022/10/18 04:55:38;;;;;;;7.97;5.82;;;;;;;5.22;66.17;96237.25;5098636;28;20069;-69
2022/10/18 04:58:03;;;;;;;10.10;6.28;;;;;;;5.34;65.07;96238.50;5101226;28;20032;-69
2022/10/18 05:00:29;;;;;;;9.70;6.00;;;;;;;5.10;64.90;96242.88;5093769;28;20025;-69
2022/10/18 05:02:56;;;;;;;10.48;6.80;;;;;;;5.11;64.71;96223.94;5102125;28;20401;-69
2022/10/18 05:05:21;;;;;;;9.63;6.50;;;;;;;5.04;64.66;96230.22;5100482;28;20040;-69
2022/10/18 05:07:47;;;;;;;8.52;5.63;;;;;;;5.04;64.79;96225.94;5104688;28;20074;-69
2022/10/18 05:10:12;;;;;;;14.73;7.15;;;;;;;5.04;64.85;96230.22;5103722;28;20024;-69
2022/10/18 05:12:38;;;;;;;16.00;7.47;;;;;;;4.95;65.09;96235.72;5102141;28;20036;-69
2022/10/18 05:15:04;;;;;;;10.13;6.60;;;;;;;4.66;65.56;96204.22;5102516;28;20028;-69
2022/10/18 05:17:29;;;;;;;10.13;6.40;;;;;;;4.85;65.09;96230.09;5103733;28;20113;-69
2022/10/18 05:19:54;;;;;;;10.90;7.18;;;;;;;4.81;65.31;96233.69;5094537;28;20032;-69
2022/10/18 05:22:20;;;;;;;9.35;6.70;;;;;;;4.68;65.72;96220.41;5089540;28;20020;-69
2022/10/18 05:24:45;;;;;;;10.10;6.63;;;;;;;4.82;65.63;96231.06;5070174;28;20032;-68
2022/10/18 05:27:11;;;;;;;9.82;6.68;;;;;;;4.74;65.82;96227.09;5089130;28;20031;-69
2022/10/18 05:29:36;;;;;;;9.90;6.82;;;;;;;4.58;66.42;96229.38;5088436;28;20020;-69
2022/10/18 05:32:02;;;;;;;7.95;5.75;;;;;;;4.60;66.19;96227.59;5088919;28;20024;-69
2022/10/18 05:34:30;;;;;;;8.23;5.75;;;;;;;4.45;66.32;96221.25;5084918;28;20157;-68
2022/10/18 05:36:56;;;;;;;7.30;5.18;;;;;;;4.51;66.73;96236.47;5084249;28;20469;-68
2022/10/18 05:39:22;;;;;;;8.88;5.30;;;;;;;4.48;67.02;96227.16;5065758;28;20093;-69
2022/10/18 05:41:47;;;;;;;9.30;5.53;;;;;;;4.50;66.41;96246.84;5090212;28;20099;-68
2022/10/18 05:44:13;;;;;;;7.18;5.55;;;;;;;4.32;66.87;96230.31;5087879;28;20077;-69
2022/10/18 05:46:38;;;;;;;9.00;6.00;;;;;;;4.12;67.48;96231.03;5087389;28;20039;-69
2022/10/18 05:49:04;;;;;;;11.45;7.35;;;;;;;4.13;67.77;96230.16;5087590;28;20032;-69
2022/10/18 05:51:29;;;;;;;16.92;8.52;;;;;;;4.12;68.29;96234.44;5085970;28;20031;-69
2022/10/18 05:53:55;;;;;;;18.38;9.68;;;;;;;4.14;68.14;96239.53;5087599;28;20043;-69
2022/10/18 05:56:20;;;;;;;13.73;8.32;;;;;;;4.20;68.14;96232.44;5084843;28;20035;-69
2022/10/18 05:58:49;;;;;;;12.43;7.25;;;;;;;4.22;67.79;96240.09;5088030;28;20557;-69
2022/10/18 06:01:14;;;;;;;10.68;5.93;;;;;;;3.98;68.12;96216.06;5069538;28;20103;-69
2022/10/18 06:03:40;;;;;;;10.52;7.30;;;;;;;4.09;68.97;96249.97;5070454;28;20422;-69
2022/10/18 06:06:06;;;;;;;11.45;6.30;;;;;;;4.14;68.77;96242.09;5084579;28;20046;-69
2022/10/18 06:08:32;;;;;;;10.10;6.28;;;;;;;4.03;68.99;96230.44;5069445;28;20177;-69
2022/10/18 06:10:57;;;;;;;10.10;6.60;;;;;;;4.10;69.01;96248.25;5086795;28;20085;-68
2022/10/18 06:13:23;;;;;;;7.65;6.28;;;;;;;4.06;68.87;96228.66;5088204;28;20031;-68
2022/10/18 06:15:49;;;;;;;11.98;6.28;;;;;;;4.16;69.57;96254.03;5079887;28;20089;-69
2022/10/18 06:18:14;;;;;;;8.63;6.35;;;;;;;4.87;67.99;96249.72;5085305;28;20032;-69
2022/10/18 06:20:39;;;;;;;9.80;6.28;;;;;;;5.74;65.33;96247.19;5068483;28;20032;-69
2022/10/18 06:23:05;;;;;;;7.82;5.90;;;;;;;6.64;62.46;96242.53;5069765;28;20032;-69
2022/10/18 06:25:30;;;;;;;7.70;5.47;;;;;;;7.46;59.74;96242.19;5082271;28;20028;-69
2022/10/18 06:27:56;;;;;;;8.27;5.90;;;;;;;8.50;56.33;96240.47;5086834;28;20032;-69
2022/10/18 06:30:21;;;;;;;7.70;5.68;;;;;;;9.46;54.00;96238.75;5069584;28;20039;-69
2022/10/18 06:32:47;;;;;;;8.60;5.60;;;;;;;10.31;51.68;96240.00;5087706;28;20032;-69
2022/10/18 06:35:12;;;;;;;8.63;5.78;;;;;;;11.05;49.49;96231.13;5081987;28;20031;-69
2022/10/18 06:37:38;;;;;;;8.98;5.88;;;;;;;11.63;47.78;96214.44;5080773;28;20594;-69
2022/10/18 06:40:04;;;;;;;7.40;6.05;;;;;;;12.38;45.87;96223.44;5083072;28;20028;-69
2022/10/18 06:42:30;;;;;;;9.32;7.05;;;;;;;13.03;44.55;96218.06;5068298;28;20475;-69
2022/10/18 06:44:56;;;;;;;11.40;8.52;;;;;;;13.65;43.22;96219.78;5084934;28;20285;-70
2022/10/18 06:47:21;;;;;;;10.90;7.50;;;;;;;14.03;41.98;96208.25;5085348;28;20091;-69
2022/10/18 06:49:47;;;;;;;8.70;6.40;;;;;;;14.62;40.24;96218.63;5086544;28;20032;-69
2022/10/18 06:52:12;;;;;;;7.40;5.57;;;;;;;15.14;39.10;96200.66;5067355;28;20523;-70
2022/10/18 06:54:37;;;;;;;10.18;6.15;;;;;;;15.64;37.93;96212.31;5081028;28;20024;-69
2022/10/18 06:57:03;;;;;;;11.20;5.88;;;;;;;16.07;37.81;96205.34;5084286;28;20024;-70
2022/10/18 06:59:28;;;;;;;7.28;5.10;;;;;;;16.51;37.15;96211.31;5077394;28;20025;-70
2022/10/18 07:01:54;;;;;;;12.45;6.00;;;;;;;16.87;36.26;96185.53;5080317;28;20553;-69
2022/10/18 07:04:19;;;;;;;10.82;6.38;;;;;;;17.48;35.27;96200.34;5062829;28;20031;-69
2022/10/18 07:06:45;;;;;;;11.07;5.60;;;;;;;17.84;35.05;96197.09;5065695;28;20471;-70
2022/10/18 07:09:10;;;;;;;9.10;5.30;;;;;;;18.04;34.83;96200.53;5081174;28;20535;-70
2022/10/18 07:11:36;;;;;;;7.32;5.00;;;;;;;18.60;33.67;96191.03;5077492;28;20020;-69
2022/10/18 07:14:04;;;;;;;10.00;4.88;;;;;;;19.18;33.28;96203.97;5082400;28;20047;-69
2022/10/18 07:16:30;;;;;;;12.27;5.70;;;;;;;19.70;32.09;96192.06;5082927;28;20044;-69
2022/10/18 07:18:55;;;;;;;11.82;6.35;;;;;;;20.13;31.45;96179.91;5063817;28;20036;-69
2022/10/18 07:21:22;;;;;;;16.25;7.90;;;;;;;20.25;30.67;96181.31;5078101;28;20016;-71
2022/10/18 07:23:48;;;;;;;20.52;8.93;;;;;;;20.36;30.17;96188.97;5053675;28;20520;-69
2022/10/18 07:26:13;;;;;;;18.25;8.23;;;;;;;20.52;30.25;96198.81;5061263;28;20021;-70
2022/10/18 07:28:38;;;;;;;12.77;8.00;;;;;;;20.95;29.48;96197.13;5083648;28;20111;-69
2022/10/18 07:31:07;;;;;;;17.63;7.97;;;;;;;21.68;28.30;96191.28;5084334;28;20455;-71
2022/10/18 07:33:34;;;;;;;12.93;7.70;;;;;;;22.27;27.26;96184.06;5079420;28;20036;-70
2022/10/18 07:36:02;;;;;;;13.32;7.78;;;;;;;22.78;27.04;96198.88;5079424;28;20129;-70
2022/10/18 07:38:27;;;;;;;9.55;7.78;;;;;;;23.09;26.43;96189.19;5060485;28;20197;-70
2022/10/18 07:40:57;;;;;;;11.75;8.13;;;;;;;23.47;26.29;96173.47;5059965;28;20477;-70
2022/10/18 07:43:23;;;;;;;13.15;8.10;;;;;;;23.75;25.06;96175.66;5060063;28;20050;-72
2022/10/18 07:45:56;;;;;;;9.75;8.10;;;;;;;23.80;25.00;96179.44;5077029;28;20036;-70
2022/10/18 07:48:21;;;;;;;11.02;8.07;;;;;;;24.25;24.40;96167.13;5078935;28;20028;-71
2022/10/18 07:50:47;;;;;;;12.30;7.80;;;;;;;23.54;25.18;96162.97;5079924;28;20031;-71
2022/10/18 07:53:12;;;;;;;13.85;7.60;;;;;;;24.40;24.45;96156.53;5062202;28;20142;-71
2022/10/18 07:55:38;;;;;;;13.30;8.18;;;;;;;23.92;24.44;96161.25;5062764;28;20086;-71
2022/10/18 07:58:03;;;;;;;15.38;7.55;;;;;;;23.51;25.21;96148.25;5079585;28;20036;-72
2022/10/18 08:00:29;;;;;;;10.88;7.22;;;;;;;23.34;25.46;96144.84;5079125;28;20032;-71
2022/10/18 08:02:55;;;;;;;12.98;8.20;;;;;;;22.21;27.02;96152.16;5083687;28;20528;-72
2022/10/18 08:05:21;;;;;;;10.63;7.38;;;;;;;21.39;28.43;96144.94;5068122;28;20039;-70
2022/10/18 08:07:46;;;;;;;12.35;8.13;;;;;;;20.64;29.33;96123.69;5078550;28;20053;-71
2022/10/18 08:10:12;;;;;;;11.25;8.30;;;;;;;20.38;29.95;96150.06;5080414;28;20025;-71
2022/10/18 08:12:37;;;;;;;10.10;7.30;;;;;;;19.83;31.15;96140.59;5077268;28;20036;-70
2022/10/18 08:15:03;;;;;;;9.48;7.00;;;;;;;19.60;31.63;96145.47;5073425;28;20032;-72
2022/10/18 08:17:29;;;;;;;15.15;7.03;;;;;;;19.03;32.14;96137.00;5080540;28;20035;-72
2022/10/18 08:19:54;;;;;;;11.13;6.50;;;;;;;18.56;32.86;96154.63;5076038;28;20043;-73
2022/10/18 08:22:21;;;;;;;9.18;6.53;;;;;;;18.53;33.23;96148.69;5073403;28;20036;-70
2022/10/18 08:24:47;;;;;;;12.55;7.00;;;;;;;18.44;33.80;96135.53;5086731;28;20028;-70
2022/10/18 08:27:13;;;;;;;10.13;6.85;;;;;;;18.34;33.72;96135.59;5065468;28;20023;-70
2022/10/18 08:29:38;;;;;;;11.70;7.00;;;;;;;18.24;34.27;96140.84;5075101;28;20437;-70
2022/10/18 08:32:04;;;;;;;10.25;6.25;;;;;;;18.17;34.17;96126.63;5082291;28;20494;-70
2022/10/18 08:34:29;;;;;;;11.88;7.25;;;;;;;18.04;34.57;96126.09;5078913;28;20424;-71
2022/10/18 08:36:55;;;;;;;12.63;7.32;;;;;;;17.46;35.06;96118.22;5081998;28;20085;-70
2022/10/18 08:39:20;;;;;;;11.90;7.18;;;;;;;17.31;35.80;96120.44;5081695;28;20041;-70
2022/10/18 08:42:15;;;;;;;12.95;6.70;;;;;;;17.39;35.80;96108.28;5061007;28;20033;-71
2022/10/18 08:44:45;;;;;;;12.93;6.80;;;;;;;17.35;35.96;96114.75;5071859;28;20153;-71
2022/10/18 08:47:32;;;;;;;12.97;5.77;;;;;;;16.49;36.93;96106.53;5060073;28;20112;-71
2022/10/18 08:50:05;;;;;;;13.90;5.60;;;;;;;16.44;36.89;96095.59;5062799;28;20020;-71
2022/10/18 08:53:09;;;;;;;9.40;4.85;;;;;;;16.45;37.33;96102.50;5069432;28;20029;-71
2022/10/18 08:56:20;;;;;;;8.40;5.38;;;;;;;16.56;37.21;96092.88;5078773;28;20024;-69
2022/10/18 08:58:45;;;;;;;8.65;4.65;;;;;;;16.62;37.32;96087.09;5071905;28;20036;-70
2022/10/18 09:01:30;;;;;;;8.68;4.75;;;;;;;16.81;36.70;96086.38;5084991;28;20032;-70
2022/10/18 09:04:33;;;;;;;7.15;4.40;;;;;;;16.89;36.93;96084.72;5075931;28;20413;-70
2022/10/18 09:07:26;;;;;;;7.25;4.50;;;;;;;16.85;37.34;96078.06;5074314;28;20028;-70
2022/10/18 09:10:13;;;;;;;5.68;4.10;;;;;;;17.00;36.99;96080.34;5071803;28;20491;-70
2022/10/18 09:12:53;;;;;;;11.50;4.35;;;;;;;16.79;36.68;96073.38;5075287;28;20040;-70
2022/10/18 09:15:53;;;;;;;8.23;4.20;;;;;;;16.89;36.69;96071.59;5076342;28;20509;-70
2022/10/18 09:18:40;;;;;;;5.72;3.90;;;;;;;17.01;36.78;96077.56;5068444;28;20052;-70
2022/10/18 09:21:17;;;;;;;6.10;3.38;;;;;;;17.12;35.17;96069.56;5075644;28;20051;-69
2022/10/18 09:23:47;;;;;;;6.13;3.83;;;;;;;17.06;36.23;96079.78;5072734;28;20032;-70
2022/10/18 09:26:22;;;;;;;5.88;3.83;;;;;;;17.02;36.32;96063.47;5070310;28;20020;-70
2022/10/18 09:29:17;;;;;;;5.43;3.88;;;;;;;16.94;35.43;96072.03;5053444;28;20509;-70
2022/10/18 09:31:55;;;;;;;6.07;3.60;;;;;;;16.94;35.66;96072.03;5070210;28;20024;-70
2022/10/18 09:34:43;;;;;;;6.13;3.83;;;;;;;16.96;35.54;96067.44;5070245;28;20036;-70
2022/10/18 09:37:13;;;;;;;4.70;3.45;;;;;;;16.75;34.92;96048.34;5053507;28;20023;-69
2022/10/18 09:39:39;;;;;;;9.25;3.50;;;;;;;17.01;34.86;96055.72;5070105;28;20032;-70
2022/10/18 09:42:10;;;;;;;4.50;3.25;;;;;;;17.20;34.96;96050.50;5069932;28;20036;-70
2022/10/18 09:44:41;;;;;;;9.23;3.65;;;;;;;17.39;35.17;96050.50;5053901;28;20057;-70
2022/10/18 09:47:20;;;;;;;;;;;;;;;17.48;35.14;96055.88;5053566;28;20450;-70
2022/10/18 09:50:23;;;;;;;5.18;3.15;;;;;;;17.47;34.88;96036.69;5070885;28;19924;-70
2022/10/18 09:53:18;;;;;;;5.18;3.10;;;;;;;17.32;33.71;96038.06;5068806;28;20045;-70
2022/10/18 09:56:06;;;;;;;5.25;3.22;;;;;;;17.62;33.86;96037.06;5051298;28;20127;-70
2022/10/18 09:58:42;;;;;;;5.82;3.38;;;;;;;17.70;34.12;96026.69;5070604;28;20055;-70
2022/10/18 10:01:09;;;;;;;7.38;3.33;;;;;;;17.80;33.30;96019.63;5071952;28;20036;-70
2022/10/18 10:03:34;;;;;;;4.03;3.03;;;;;;;17.77;32.57;96011.97;5044049;28;20037;-70
2022/10/18 10:06:13;;;;;;;5.07;3.00;;;;;;;17.68;32.40;96028.59;5074409;28;20074;-69
2022/10/18 10:08:43;;;;;;;6.72;3.03;;;;;;;17.92;32.76;95996.63;5081833;28;20052;-69
2022/10/18 10:11:44;;;;;;;5.70;2.88;;;;;;;17.99;31.98;96015.28;5073568;28;20033;-69
2022/10/18 10:14:15;;;;;;;5.97;3.50;;;;;;;18.14;32.47;96000.72;5077655;28;20036;-70
2022/10/18 10:16:58;;;;;;;9.88;3.40;;;;;;;18.07;31.32;95992.56;5077996;28;20123;-69
2022/10/18 10:19:27;;;;;;;5.05;2.72;;;;;;;18.18;31.85;95982.81;5067072;28;20040;-70
2022/10/18 10:21:55;;;;;;;5.03;3.50;;;;;;;18.29;32.26;95980.81;5065973;28;20121;-69
2022/10/18 10:24:24;;;;;;;7.07;3.10;;;;;;;18.21;30.92;95962.31;5068031;28;20039;-69
2022/10/18 10:26:52;;;;;;;6.97;3.13;;;;;;;18.30;29.63;95977.25;5068907;28;20062;-69
2022/10/18 10:29:37;;;;;;;4.88;3.00;;;;;;;18.35;29.87;95971.53;5060393;28;20036;-69
2022/10/18 10:32:03;;;;;;;3.92;3.03;;;;;;;18.36;29.81;95953.94;5081781;28;20028;-72
2022/10/18 10:34:28;;;;;;;4.25;2.92;;;;;;;18.52;30.94;95947.03;5047101;28;20052;-72
2022/10/18 10:36:54;;;;;;;6.45;3.33;;;;;;;18.64;31.50;95945.06;5067353;28;20016;-73
2022/10/18 10:39:21;;;;;;;4.70;2.83;;;;;;;18.67;30.60;95947.38;5085299;28;20036;-72
2022/10/18 10:41:51;;;;;;;5.15;3.03;;;;;;;18.67;30.03;95936.84;5080799;28;20492;-73
2022/10/18 10:44:24;;;;;;;5.60;2.90;;;;;;;18.83;31.00;95932.72;5064682;28;20413;-73
2022/10/18 10:46:49;;;;;;;3.60;2.80;;;;;;;18.59;28.82;95933.31;5064202;28;20115;-72
2022/10/18 10:49:22;;;;;;;5.30;2.70;;;;;;;18.74;29.02;95921.31;5079720;28;20032;-73
2022/10/18 10:51:59;;;;;;;4.43;2.42;;;;;;;18.78;26.37;95917.41;5047986;28;20020;-73
2022/10/18 10:54:25;;;;;;;2.58;1.58;;;;;;;18.59;22.41;95910.47;5081474;28;20044;-73
2022/10/18 10:57:00;;;;;;;3.40;1.80;;;;;;;18.80;23.09;95923.34;5063912;28;20115;-72
2022/10/18 10:59:27;;;;;;;2.80;2.05;;;;;;;18.79;23.82;95905.91;5083656;28;20088;-72
2022/10/18 11:02:32;;;;;;;3.78;2.28;;;;;;;18.78;24.92;95901.63;5065148;28;20028;-72
2022/10/18 11:05:19;;;;;;;3.50;2.50;;;;;;;19.18;26.67;95902.91;5054280;28;20132;-72
2022/10/18 11:07:45;;;;;;;5.63;2.25;;;;;;;18.95;25.30;95899.94;5076914;28;20055;-72
2022/10/18 11:10:10;;;;;;;3.38;2.35;;;;;;;19.03;25.60;95894.75;5078693;28;20047;-72
2022/10/18 11:12:39;;;;;;;3.58;2.20;;;;;;;18.96;25.93;95893.69;5083635;28;20044;-73
2022/10/18 11:15:13;;;;;;;5.65;2.65;;;;;;;18.88;25.84;95885.72;5084534;28;20044;-72
2022/10/18 11:17:46;;;;;;;6.10;2.40;;;;;;;19.06;26.44;95875.19;5085483;28;20034;-72
2022/10/18 11:20:46;;;;;;;7.55;2.60;;;;;;;19.25;27.01;95882.91;5064154;28;20121;-72
2022/10/18 11:23:12;;;;;;;4.30;2.33;;;;;;;19.34;25.54;95865.31;5074256;28;20477;-72
2022/10/18 11:25:47;;;;;;;4.10;2.10;;;;;;;19.43;24.88;95861.75;5086126;28;20122;-73
2022/10/18 11:28:38;;;;;;;4.90;2.13;;;;;;;19.54;24.55;95861.47;5067029;28;20127;-72
2022/10/18 11:31:34;;;;;;;4.95;2.42;;;;;;;19.56;24.57;95854.25;5083914;28;20063;-72
2022/10/18 11:34:27;;;;;;;2.95;1.90;;;;;;;19.57;24.26;95848.00;5087380;28;20035;-72
2022/10/18 11:37:14;;;;;;;4.38;2.38;;;;;;;19.48;23.10;95817.31;5084679;28;20081;-72
2022/10/18 11:39:49;;;;;;;4.72;2.22;;;;;;;19.77;24.94;95831.97;5086622;28;20028;-72
2022/10/18 11:42:36;;;;;;;3.25;1.90;;;;;;;19.80;26.23;95826.38;5086819;28;20024;-72
2022/10/18 11:45:32;;;;;;;3.47;2.10;;;;;;;19.73;24.32;95817.47;5087084;28;20024;-72
2022/10/18 11:48:01;;;;;;;4.93;1.95;;;;;;;19.70;24.70;95802.78;5085818;28;20032;-72
2022/10/18 11:50:37;;;;;;;3.08;2.10;;;;;;;19.80;26.31;95808.72;5080698;28;20077;-72
2022/10/18 11:53:27;;;;;;;3.30;1.85;;;;;;;19.84;25.67;95810.06;5068076;28;20063;-72
2022/10/18 11:56:15;;;;;;;3.17;1.90;;;;;;;19.89;24.01;95804.31;5067468;28;20152;-72
2022/10/18 11:58:53;;;;;;;4.25;2.00;;;;;;;20.04;25.85;95805.34;5085515;28;20028;-72
2022/10/18 12:01:28;;;;;;;4.43;2.08;;;;;;;20.07;25.61;95804.19;5068451;28;20024;-72
2022/10/18 12:04:17;;;;;;;3.72;1.90;;;;;;;20.05;22.95;95791.16;5086174;28;20036;-72